Time;durP1;ratioP1;P1;durP2;ratioP2;P2;SDS_P1;SDS_P2;PMS_P1;PMS_P2;Temp;Humidity;BMP_temperature;BMP_pressure;BME280_temperature;BME280_humidity;BME280_pressure;Samples;Min_cycle;Max_cycle;Signal;HPM_P1;HPM_P2
2023/07/15 00:01:40;;;;;;;11.00;6.30;;;;;;;;;;5025354;28;20458;-80
2023/07/15 00:04:11;;;;;;;9.37;6.63;;;;;;;;;;5029674;28;20460;-81
2023/07/15 00:06:37;;;;;;;8.83;5.73;;;;;;;;;;5035655;28;20485;-81
2023/07/15 00:09:04;;;;;;;8.87;6.30;;;;;;;;;;5037595;28;20485;-82
2023/07/15 00:11:32;;;;;;;7.27;6.00;;;;;;;;;;5033093;28;20501;-80
2023/07/15 00:13:59;;;;;;;6.87;6.17;;;;;;;;;;5049061;28;20441;-81
2023/07/15 00:16:26;;;;;;;6.30;5.10;;;;;;;;;;5036567;28;20475;-80
2023/07/15 00:18:52;;;;;;;6.40;5.40;;;;;;;;;;5034827;28;20468;-81
2023/07/15 00:21:22;;;;;;;8.03;5.57;;;;;;;;;;5031729;28;20468;-80
2023/07/15 00:23:52;;;;;;;13.20;6.10;;;;;;;;;;5027671;28;20453;-81
2023/07/15 00:26:19;;;;;;;8.77;5.77;;;;;;;;;;5025259;28;20508;-81
2023/07/15 00:28:46;;;;;;;8.77;5.43;;;;;;;;;;5031491;28;20552;-81
2023/07/15 00:31:15;;;;;;;10.40;6.07;;;;;;;;;;5033783;28;20481;-80
2023/07/15 00:33:42;;;;;;;6.77;5.80;;;;;;;;;;5026041;28;20484;-81
2023/07/15 00:36:09;;;;;;;8.97;5.90;;;;;;;;;;5036523;28;20471;-81
2023/07/15 00:38:37;;;;;;;7.57;6.23;;;;;;;;;;5032714;28;20475;-80
2023/07/15 00:41:04;;;;;;;7.10;5.60;;;;;;;;;;5031330;28;20465;-81
2023/07/15 00:43:49;;;;;;;11.10;5.83;;;;;;;;;;5032999;28;20479;-81
2023/07/15 00:46:39;;;;;;;7.03;5.27;;;;;;;;;;5035301;28;20519;-81
2023/07/15 00:49:09;;;;;;;5.67;4.77;;;;;;;;;;5036200;28;20477;-81
2023/07/15 00:51:38;;;;;;;7.33;5.17;;;;;;;;;;5035874;28;20476;-81
2023/07/15 00:54:04;;;;;;;9.27;6.10;;;;;;;;;;5028851;28;20476;-81
2023/07/15 00:56:31;;;;;;;6.80;6.00;;;;;;;;;;5034585;28;20519;-81
2023/07/15 00:58:58;;;;;;;6.30;5.33;;;;;;;;;;5036524;28;20504;-81
2023/07/15 01:01:24;;;;;;;7.30;5.90;;;;;;;;;;5034788;28;20460;-81
2023/07/15 01:03:54;;;;;;;9.20;5.43;;;;;;;;;;5020769;28;20456;-81
2023/07/15 01:06:21;;;;;;;9.30;5.87;;;;;;;;;;5030537;28;20469;-80
2023/07/15 01:08:47;;;;;;;10.07;5.23;;;;;;;;;;5025100;28;20469;-79
2023/07/15 01:11:14;;;;;;;8.90;5.93;;;;;;;;;;5032616;28;21033;-80
2023/07/15 01:13:40;;;;;;;10.70;5.67;;;;;;;;;;5035597;28;20467;-80
2023/07/15 01:16:07;;;;;;;6.33;5.23;;;;;;;;;;5032978;28;20837;-79
2023/07/15 01:18:33;;;;;;;8.93;5.30;;;;;;;;;;5033721;28;20485;-80
2023/07/15 01:21:01;;;;;;;6.73;5.30;;;;;;;;;;5041820;28;20478;-79
2023/07/15 01:23:29;;;;;;;8.57;6.60;;;;;;;;;;5028987;28;20506;-80
2023/07/15 01:25:56;;;;;;;9.20;5.70;;;;;;;;;;5033093;28;20468;-79
2023/07/15 01:28:22;;;;;;;9.63;5.90;;;;;;;;;;5035806;28;20469;-80
2023/07/15 01:30:49;;;;;;;10.30;5.83;;;;;;;;;;5030725;28;21003;-80
2023/07/15 01:33:16;;;;;;;9.53;5.90;;;;;;;;;;5035567;28;20448;-80
2023/07/15 01:35:47;;;;;;;7.37;5.43;;;;;;;;;;5030912;28;20485;-80
2023/07/15 01:38:13;;;;;;;6.53;5.83;;;;;;;;;;5034438;28;20468;-80
2023/07/15 01:40:41;;;;;;;10.77;5.90;;;;;;;;;;5034963;28;20488;-80
2023/07/15 01:43:07;;;;;;;6.80;6.10;;;;;;;;;;5034746;28;20463;-80
2023/07/15 01:45:33;;;;;;;11.10;7.90;;;;;;;;;;5030553;28;20476;-79
2023/07/15 01:48:00;;;;;;;7.20;5.27;;;;;;;;;;5028631;28;20472;-80
2023/07/15 01:50:26;;;;;;;5.70;4.83;;;;;;;;;;5026299;28;20484;-80
2023/07/15 01:52:52;;;;;;;5.87;5.27;;;;;;;;;;5036554;28;20483;-79
2023/07/15 01:55:19;;;;;;;8.33;6.27;;;;;;;;;;5034566;28;20473;-79
2023/07/15 01:57:47;;;;;;;12.63;5.33;;;;;;;;;;5027132;28;20850;-80
2023/07/15 02:00:16;;;;;;;7.37;5.47;;;;;;;;;;5029949;28;20476;-79
2023/07/15 02:02:43;;;;;;;11.40;6.50;;;;;;;;;;5033955;28;20452;-79
2023/07/15 02:05:09;;;;;;;7.87;5.67;;;;;;;;;;5027710;28;20480;-79
2023/07/15 02:07:35;;;;;;;7.70;5.97;;;;;;;;;;5023303;28;20470;-80
2023/07/15 02:10:02;;;;;;;7.57;5.60;;;;;;;;;;5023967;28;20483;-79
2023/07/15 02:12:28;;;;;;;9.67;6.23;;;;;;;;;;5032772;28;20481;-79
2023/07/15 02:14:56;;;;;;;10.33;6.53;;;;;;;;;;5031043;28;20457;-79
2023/07/15 02:17:23;;;;;;;9.83;5.90;;;;;;;;;;5032725;28;20920;-80
2023/07/15 02:19:49;;;;;;;10.93;6.17;;;;;;;;;;5034269;28;20445;-79
2023/07/15 02:22:15;;;;;;;12.43;6.70;;;;;;;;;;5029367;28;20444;-80
2023/07/15 02:24:42;;;;;;;9.90;5.47;;;;;;;;;;5033090;28;20453;-80
2023/07/15 02:27:08;;;;;;;9.10;6.20;;;;;;;;;;5031109;28;20476;-79
2023/07/15 02:29:34;;;;;;;13.63;6.47;;;;;;;;;;5029971;28;20833;-80
2023/07/15 02:32:02;;;;;;;11.07;6.20;;;;;;;;;;5031363;28;20484;-80
2023/07/15 02:34:29;;;;;;;10.13;5.97;;;;;;;;;;5029922;28;20449;-80
2023/07/15 02:36:56;;;;;;;12.73;5.80;;;;;;;;;;5064464;28;20456;-80
2023/07/15 02:39:22;;;;;;;7.87;4.83;;;;;;;;;;5053508;28;20475;-79
2023/07/15 02:41:50;;;;;;;7.20;5.80;;;;;;;;;;5019902;28;21038;-80
2023/07/15 02:44:16;;;;;;;8.67;5.17;;;;;;;;;;5024914;28;20450;-79
2023/07/15 02:46:43;;;;;;;7.17;6.10;;;;;;;;;;5032486;28;20473;-80
2023/07/15 02:49:11;;;;;;;10.60;5.73;;;;;;;;;;5033295;28;20833;-79
2023/07/15 02:51:38;;;;;;;8.63;6.00;;;;;;;;;;5022878;28;20854;-80
2023/07/15 02:54:04;;;;;;;7.93;4.80;;;;;;;;;;5033286;28;20985;-80
2023/07/15 02:56:30;;;;;;;11.20;6.00;;;;;;;;;;5023132;28;20483;-80
2023/07/15 02:58:57;;;;;;;10.83;5.73;;;;;;;;;;5031334;28;20477;-79
2023/07/15 03:01:23;;;;;;;8.43;5.40;;;;;;;;;;5030012;28;20472;-79
2023/07/15 03:03:49;;;;;;;9.10;4.80;;;;;;;;;;5026388;28;20464;-80
2023/07/15 03:06:17;;;;;;;11.23;4.63;;;;;;;;;;5026711;28;20465;-79
2023/07/15 03:08:44;;;;;;;8.87;5.53;;;;;;;;;;5027636;28;20465;-80
2023/07/15 03:11:11;;;;;;;6.77;5.03;;;;;;;;;;5029998;28;20485;-82
2023/07/15 03:13:37;;;;;;;6.03;4.70;;;;;;;;;;5033327;28;20575;-81
2023/07/15 03:16:05;;;;;;;8.50;5.40;;;;;;;;;;5029543;28;20480;-81
2023/07/15 03:18:31;;;;;;;6.17;5.07;;;;;;;;;;5026596;28;20512;-81
2023/07/15 03:20:57;;;;;;;8.03;5.37;;;;;;;;;;5030698;28;20873;-80
2023/07/15 03:23:25;;;;;;;8.90;4.60;;;;;;;;;;5025752;28;20445;-81
2023/07/15 03:25:53;;;;;;;5.00;4.60;;;;;;;;;;5023125;28;20469;-80
2023/07/15 03:28:19;;;;;;;5.27;4.33;;;;;;;;;;5027502;28;20473;-81
2023/07/15 03:30:48;;;;;;;9.23;5.20;;;;;;;;;;5031214;28;20464;-81
2023/07/15 03:33:14;;;;;;;5.97;4.67;;;;;;;;;;5030382;28;20488;-80
2023/07/15 03:35:44;;;;;;;5.90;4.50;;;;;;;;;;5031004;28;20466;-81
2023/07/15 03:38:11;;;;;;;9.43;5.03;;;;;;;;;;5033195;28;20472;-80
2023/07/15 03:40:38;;;;;;;5.50;4.80;;;;;;;;;;5028553;28;20465;-79
2023/07/15 03:43:05;;;;;;;6.30;4.80;;;;;;;;;;5031635;28;20456;-79
2023/07/15 03:45:31;;;;;;;5.63;4.90;;;;;;;;;;5025635;28;21052;-81
2023/07/15 03:47:57;;;;;;;5.73;4.27;;;;;;;;;;5030260;28;20481;-81
2023/07/15 03:50:25;;;;;;;9.50;4.93;;;;;;;;;;5032476;28;20476;-80
2023/07/15 03:52:51;;;;;;;6.87;4.83;;;;;;;;;;5010222;28;20531;-79
2023/07/15 03:55:18;;;;;;;6.10;4.90;;;;;;;;;;5026841;28;20472;-80
2023/07/15 03:57:45;;;;;;;6.50;5.13;;;;;;;;;;5029747;28;20472;-81
2023/07/15 04:00:16;;;;;;;7.00;4.63;;;;;;;;;;5009261;28;20485;-80
2023/07/15 04:02:44;;;;;;;6.70;4.77;;;;;;;;;;5041691;28;20437;-80
2023/07/15 04:05:11;;;;;;;7.40;4.80;;;;;;;;;;5026427;28;20479;-80
2023/07/15 04:07:37;;;;;;;6.50;4.43;;;;;;;;;;5045452;28;20562;-81
2023/07/15 04:10:04;;;;;;;5.80;4.60;;;;;;;;;;5030786;28;20815;-81
2023/07/15 04:12:30;;;;;;;7.47;4.80;;;;;;;;;;5031604;28;20547;-81
2023/07/15 04:14:58;;;;;;;7.80;4.73;;;;;;;;;;5031922;28;20475;-81
2023/07/15 04:17:24;;;;;;;8.20;4.63;;;;;;;;;;5032245;28;20482;-80
2023/07/15 04:19:51;;;;;;;6.17;4.90;;;;;;;;;;5032014;28;20456;-81
2023/07/15 04:22:17;;;;;;;6.00;5.40;;;;;;;;;;5026846;28;20449;-81
2023/07/15 04:24:43;;;;;;;8.53;4.83;;;;;;;;;;5028896;28;20991;-81
2023/07/15 04:27:11;;;;;;;5.07;4.40;;;;;;;;;;5029062;28;20454;-80
2023/07/15 04:29:37;;;;;;;6.13;5.30;;;;;;;;;;5023263;28;20870;-81
2023/07/15 04:32:05;;;;;;;6.13;4.70;;;;;;;;;;5035490;28;20484;-81
2023/07/15 04:34:33;;;;;;;5.40;4.90;;;;;;;;;;5034766;28;20453;-81
2023/07/15 04:37:02;;;;;;;8.50;4.47;;;;;;;;;;5021077;28;20444;-81
2023/07/15 04:39:28;;;;;;;7.53;5.07;;;;;;;;;;5031178;28;20454;-80
2023/07/15 04:41:54;;;;;;;6.37;5.03;;;;;;;;;;5027575;28;20460;-81
2023/07/15 04:44:22;;;;;;;6.73;4.90;;;;;;;;;;5033597;28;20524;-81
2023/07/15 04:46:49;;;;;;;11.23;4.83;;;;;;;;;;5032759;28;20491;-80
2023/07/15 04:49:17;;;;;;;6.43;5.13;;;;;;;;;;5028069;28;20461;-80
2023/07/15 04:51:44;;;;;;;8.37;5.10;;;;;;;;;;5033897;28;20465;-81
2023/07/15 04:54:10;;;;;;;6.10;5.07;;;;;;;;;;5028042;28;20534;-80
2023/07/15 04:56:36;;;;;;;10.20;5.30;;;;;;;;;;5025750;28;20849;-81
2023/07/15 04:59:03;;;;;;;7.40;4.97;;;;;;;;;;5033880;28;20464;-80
2023/07/15 05:01:29;;;;;;;7.67;4.53;;;;;;;;;;5017050;28;20469;-81
2023/07/15 05:03:55;;;;;;;4.70;4.30;;;;;;;;;;5020473;28;20825;-80
2023/07/15 05:06:23;;;;;;;9.93;5.27;;;;;;;;;;5030144;28;20481;-81
2023/07/15 05:08:50;;;;;;;7.63;4.97;;;;;;;;;;5029487;28;20466;-81
2023/07/15 05:11:17;;;;;;;7.93;4.67;;;;;;;;;;5028594;28;20464;-80
2023/07/15 05:13:43;;;;;;;5.30;4.67;;;;;;;;;;5029080;28;20483;-81
2023/07/15 05:16:11;;;;;;;7.53;4.80;;;;;;;;;;5030951;28;20495;-81
2023/07/15 05:18:37;;;;;;;8.60;5.40;;;;;;;;;;5029558;28;20481;-81
2023/07/15 05:21:04;;;;;;;6.03;5.03;;;;;;;;;;5034427;28;20483;-80
2023/07/15 05:23:31;;;;;;;5.80;4.90;;;;;;;;;;5028634;28;20782;-81
2023/07/15 05:25:59;;;;;;;8.30;5.37;;;;;;;;;;5033656;28;20465;-80
2023/07/15 05:28:27;;;;;;;5.10;3.63;;;;;;;;;;5035212;28;20473;-80
2023/07/15 05:30:53;;;;;;;5.83;4.30;;;;;;;;;;5025183;28;20479;-80
2023/07/15 05:33:20;;;;;;;5.07;4.50;;;;;;;;;;5024289;28;21022;-81
2023/07/15 05:35:47;;;;;;;7.73;4.93;;;;;;;;;;5033174;28;20469;-81
2023/07/15 05:38:13;;;;;;;5.10;4.70;;;;;;;;;;5047282;28;20490;-80
2023/07/15 05:40:42;;;;;;;6.80;5.20;;;;;;;;;;5043007;28;20464;-81
2023/07/15 05:43:08;;;;;;;18.50;5.07;;;;;;;;;;5053874;28;20441;-80
2023/07/15 05:45:35;;;;;;;6.70;4.40;;;;;;;;;;5042398;28;20468;-80
2023/07/15 05:48:01;;;;;;;5.40;4.57;;;;;;;;;;5034448;28;20500;-80
2023/07/15 05:50:32;;;;;;;9.87;5.40;;;;;;;;;;5019527;28;20473;-81
2023/07/15 05:52:58;;;;;;;7.80;4.00;;;;;;;;;;5033928;28;20468;-79
2023/07/15 05:55:25;;;;;;;12.50;5.70;;;;;;;;;;5032004;28;20468;-80
2023/07/15 05:57:52;;;;;;;5.10;4.60;;;;;;;;;;5023667;28;21002;-79
2023/07/15 06:00:19;;;;;;;7.33;4.07;;;;;;;;;;5033911;28;20468;-80
2023/07/15 06:02:45;;;;;;;6.63;4.07;;;;;;;;;;5028718;28;20452;-79
2023/07/15 06:05:12;;;;;;;5.93;3.53;;;;;;;;;;5024740;28;21019;-81
2023/07/15 06:07:38;;;;;;;9.13;5.10;;;;;;;;;;5031292;28;20476;-79
2023/07/15 06:10:05;;;;;;;5.57;4.10;;;;;;;;;;5024183;28;20815;-80
2023/07/15 06:12:31;;;;;;;7.37;4.37;;;;;;;;;;5030713;28;20969;-79
2023/07/15 06:14:59;;;;;;;5.90;3.93;;;;;;;;;;5030870;28;21013;-80
2023/07/15 06:17:25;;;;;;;5.40;3.63;;;;;;;;;;5019040;28;20469;-81
2023/07/15 06:19:52;;;;;;;4.93;4.43;;;;;;;;;;5023136;28;20466;-79
2023/07/15 06:22:18;;;;;;;8.40;4.40;;;;;;;;;;5032458;28;20452;-81
2023/07/15 06:24:46;;;;;;;5.63;4.47;;;;;;;;;;5032970;28;20471;-80
2023/07/15 06:27:13;;;;;;;6.20;3.30;;;;;;;;;;5032847;28;20449;-82
2023/07/15 06:29:39;;;;;;;5.87;3.90;;;;;;;;;;5033147;28;20452;-80
2023/07/15 06:32:07;;;;;;;4.33;3.90;;;;;;;;;;5035443;28;20832;-79
2023/07/15 06:34:34;;;;;;;6.13;4.13;;;;;;;;;;5028250;28;20495;-81
2023/07/15 06:37:00;;;;;;;6.20;4.00;;;;;;;;;;5029081;28;20453;-81
2023/07/15 06:39:27;;;;;;;3.73;3.40;;;;;;;;;;5032190;28;20935;-79
2023/07/15 06:41:54;;;;;;;5.23;4.03;;;;;;;;;;5034077;28;20469;-81
2023/07/15 06:44:20;;;;;;;6.70;3.53;;;;;;;;;;5019103;28;20446;-79
2023/07/15 06:46:46;;;;;;;6.43;3.77;;;;;;;;;;5030976;28;20849;-79
2023/07/15 06:49:14;;;;;;;4.50;3.90;;;;;;;;;;5030711;28;20469;-80
2023/07/15 06:51:41;;;;;;;3.63;3.33;;;;;;;;;;5019705;28;20488;-80
2023/07/15 06:54:07;;;;;;;3.77;3.47;;;;;;;;;;5021255;28;20497;-81
2023/07/15 06:56:33;;;;;;;4.43;3.30;;;;;;;;;;5017117;28;20461;-80
2023/07/15 06:59:00;;;;;;;4.47;4.07;;;;;;;;;;5042649;28;20501;-80
2023/07/15 07:01:26;;;;;;;4.33;4.00;;;;;;;;;;5027071;28;20477;-80
2023/07/15 07:03:54;;;;;;;5.07;3.67;;;;;;;;;;5042370;28;20834;-80
2023/07/15 07:06:22;;;;;;;8.70;3.50;;;;;;;;;;5021370;28;20987;-80
2023/07/15 07:08:48;;;;;;;4.00;3.50;;;;;;;;;;5027539;28;20477;-79
2023/07/15 07:11:15;;;;;;;4.03;3.63;;;;;;;;;;5029724;28;20473;-80
2023/07/15 07:13:41;;;;;;;6.80;4.60;;;;;;;;;;5024195;28;20489;-82
2023/07/15 07:16:07;;;;;;;10.30;3.37;;;;;;;;;;5027374;28;20468;-80
2023/07/15 07:18:34;;;;;;;4.77;3.93;;;;;;;;;;5024554;28;20504;-79
2023/07/15 07:21:00;;;;;;;7.60;3.70;;;;;;;;;;5029583;28;20473;-80
2023/07/15 07:23:29;;;;;;;3.93;3.33;;;;;;;;;;5027873;28;20448;-80
2023/07/15 07:25:56;;;;;;;3.27;2.97;;;;;;;;;;5023843;28;20469;-80
2023/07/15 07:28:23;;;;;;;4.90;3.40;;;;;;;;;;5029614;28;20993;-80
2023/07/15 07:30:50;;;;;;;5.40;3.73;;;;;;;;;;5029922;28;20473;-82
2023/07/15 07:33:16;;;;;;;5.03;3.80;;;;;;;;;;5027048;28;20489;-81
2023/07/15 07:35:45;;;;;;;4.23;3.10;;;;;;;;;;5034257;28;20472;-81
2023/07/15 07:38:12;;;;;;;5.77;3.40;;;;;;;;;;5027281;28;20466;-81
2023/07/15 07:40:39;;;;;;;4.43;3.50;;;;;;;;;;5034033;28;21002;-80
2023/07/15 07:43:06;;;;;;;4.60;4.07;;;;;;;;;;5031800;28;20444;-80
2023/07/15 07:45:32;;;;;;;5.20;4.17;;;;;;;;;;5028089;28;20465;-80
2023/07/15 07:47:59;;;;;;;7.63;2.90;;;;;;;;;;5024878;28;20471;-80
2023/07/15 07:50:26;;;;;;;5.57;3.50;;;;;;;;;;5035005;28;20526;-81
2023/07/15 07:52:52;;;;;;;5.10;3.53;;;;;;;;;;5027352;28;20526;-80
2023/07/15 07:55:19;;;;;;;4.20;3.17;;;;;;;;;;5020362;28;20473;-80
2023/07/15 07:57:46;;;;;;;4.80;3.13;;;;;;;;;;5035710;28;20464;-80
2023/07/15 08:00:14;;;;;;;7.30;3.63;;;;;;;;;;5029138;28;20475;-81
2023/07/15 08:02:40;;;;;;;6.20;3.73;;;;;;;;;;5035146;28;20503;-80
2023/07/15 08:05:08;;;;;;;4.17;3.40;;;;;;;;;;5028858;28;20469;-80
2023/07/15 08:07:34;;;;;;;4.90;3.60;;;;;;;;;;5019034;28;20473;-80
2023/07/15 08:10:01;;;;;;;3.80;3.43;;;;;;;;;;5023726;28;20486;-80
2023/07/15 08:12:27;;;;;;;5.03;3.17;;;;;;;;;;5029864;28;20452;-82
2023/07/15 08:14:55;;;;;;;3.83;2.70;;;;;;;;;;5030384;28;20458;-81
2023/07/15 08:17:21;;;;;;;2.93;2.73;;;;;;;;;;5037404;28;20464;-81
2023/07/15 08:19:47;;;;;;;6.00;3.30;;;;;;;;;;5025793;28;20448;-81
2023/07/15 08:22:14;;;;;;;6.70;3.57;;;;;;;;;;5024604;28;20457;-82
2023/07/15 08:24:40;;;;;;;6.10;3.03;;;;;;;;;;5036565;28;20484;-82
2023/07/15 08:27:07;;;;;;;4.53;3.33;;;;;;;;;;5036924;28;20455;-82
2023/07/15 08:29:33;;;;;;;6.77;4.20;;;;;;;;;;5021361;28;20450;-80
2023/07/15 08:32:01;;;;;;;3.20;2.90;;;;;;;;;;5034592;28;20792;-80
2023/07/15 08:34:27;;;;;;;5.93;3.50;;;;;;;;;;5030593;28;20495;-79
2023/07/15 08:36:53;;;;;;;6.73;3.93;;;;;;;;;;5037536;28;20473;-79
2023/07/15 08:39:20;;;;;;;7.27;3.30;;;;;;;;;;5038230;28;20468;-80
2023/07/15 08:41:46;;;;;;;5.03;3.10;;;;;;;;;;5051455;28;20492;-79
2023/07/15 08:44:14;;;;;;;4.87;3.60;;;;;;;;;;5052000;28;20455;-79
2023/07/15 08:46:42;;;;;;;7.47;3.20;;;;;;;;;;5051503;28;20478;-80
2023/07/15 08:49:12;;;;;;;4.97;3.50;;;;;;;;;;5058396;28;20483;-81
2023/07/15 08:51:38;;;;;;;3.30;3.00;;;;;;;;;;5039228;28;20480;-80
2023/07/15 08:54:06;;;;;;;3.83;3.33;;;;;;;;;;5028695;28;20866;-81
2023/07/15 08:56:34;;;;;;;4.57;3.77;;;;;;;;;;5024627;28;20486;-79
2023/07/15 08:59:01;;;;;;;3.23;2.93;;;;;;;;;;5024972;28;20497;-79
2023/07/15 09:01:27;;;;;;;4.37;3.00;;;;;;;;;;5035905;28;20477;-82
2023/07/15 09:03:53;;;;;;;5.33;3.70;;;;;;;;;;5032565;28;20817;-78
2023/07/15 09:06:21;;;;;;;7.43;3.67;;;;;;;;;;5034762;28;20998;-81
2023/07/15 09:08:50;;;;;;;6.93;3.83;;;;;;;;;;5028964;28;20472;-81
2023/07/15 09:11:16;;;;;;;4.67;3.30;;;;;;;;;;5032393;28;20482;-81
2023/07/15 09:13:43;;;;;;;3.73;3.43;;;;;;;;;;5029049;28;20578;-82
2023/07/15 09:16:10;;;;;;;4.60;3.47;;;;;;;;;;5030552;28;20476;-79
2023/07/15 09:18:38;;;;;;;3.53;3.23;;;;;;;;;;5034986;28;20472;-79
2023/07/15 09:21:08;;;;;;;3.53;3.23;;;;;;;;;;5021574;28;20474;-79
2023/07/15 09:23:37;;;;;;;4.73;3.63;;;;;;;;;;5028351;28;20507;-79
2023/07/15 09:26:05;;;;;;;3.77;3.40;;;;;;;;;;5021416;28;20482;-79
2023/07/15 09:28:31;;;;;;;4.00;3.60;;;;;;;;;;5027638;28;20476;-80
2023/07/15 09:30:59;;;;;;;27.13;10.90;;;;;;;;;;5023841;28;20492;-81
2023/07/15 09:33:30;;;;;;;7.27;4.17;;;;;;;;;;5016495;28;20456;-80
2023/07/15 09:35:56;;;;;;;3.63;3.00;;;;;;;;;;5027540;28;20499;-80
2023/07/15 09:38:23;;;;;;;7.10;4.13;;;;;;;;;;5036076;28;20619;-80
2023/07/15 09:40:51;;;;;;;4.97;3.37;;;;;;;;;;5035561;28;20475;-80
2023/07/15 09:43:17;;;;;;;3.70;3.40;;;;;;;;;;5031284;28;20468;-80
2023/07/15 09:45:45;;;;;;;5.30;3.40;;;;;;;;;;5030871;28;20503;-79
2023/07/15 09:48:12;;;;;;;4.30;3.70;;;;;;;;;;5027791;28;20480;-79
2023/07/15 09:50:39;;;;;;;3.80;3.07;;;;;;;;;;5029551;28;20468;-80
2023/07/15 09:53:05;;;;;;;4.00;3.13;;;;;;;;;;5033039;28;20452;-80
2023/07/15 09:55:32;;;;;;;4.30;3.20;;;;;;;;;;5033533;28;20465;-80
2023/07/15 09:58:05;;;;;;;4.10;3.40;;;;;;;;;;5035595;28;20476;-81
2023/07/15 10:00:34;;;;;;;7.10;3.83;;;;;;;;;;5027630;28;21004;-80
2023/07/15 10:03:01;;;;;;;5.57;3.33;;;;;;;;;;5033106;28;20441;-82
2023/07/15 10:05:28;;;;;;;3.93;3.53;;;;;;;;;;5029664;28;20544;-81
2023/07/15 10:07:56;;;;;;;5.50;3.87;;;;;;;;;;5024216;28;20835;-82
2023/07/15 10:10:22;;;;;;;3.50;3.20;;;;;;;;;;5024060;28;20469;-79
2023/07/15 10:12:49;;;;;;;6.00;3.60;;;;;;;;;;5031900;28;20903;-79
2023/07/15 10:15:17;;;;;;;5.20;3.10;;;;;;;;;;5034722;28;20843;-79
2023/07/15 10:17:45;;;;;;;8.43;3.77;;;;;;;;;;5028677;28;20515;-81
2023/07/15 10:20:12;;;;;;;4.23;3.30;;;;;;;;;;5027675;28;20471;-81
2023/07/15 10:22:39;;;;;;;4.40;4.00;;;;;;;;;;5030927;28;20440;-81
2023/07/15 10:25:08;;;;;;;4.90;3.17;;;;;;;;;;5044710;28;20460;-80
2023/07/15 10:27:36;;;;;;;4.73;3.33;;;;;;;;;;5032359;28;20480;-80
2023/07/15 10:30:17;;;;;;;4.47;3.37;;;;;;;;;;5034251;28;20527;-80
2023/07/15 10:32:58;;;;;;;4.10;2.80;;;;;;;;;;5033462;28;20451;-80
2023/07/15 10:35:27;;;;;;;2.93;2.63;;;;;;;;;;5033451;28;20476;-80
2023/07/15 10:37:55;;;;;;;5.00;2.60;;;;;;;;;;5034629;28;20468;-79
2023/07/15 10:40:36;;;;;;;5.20;2.90;;;;;;;;;;5033724;28;20476;-80
2023/07/15 10:43:08;;;;;;;4.93;2.50;;;;;;;;;;5024865;28;20444;-79
2023/07/15 10:45:41;;;;;;;4.13;2.80;;;;;;;;;;5027747;28;20492;-80
2023/07/15 10:48:09;;;;;;;12.03;3.10;;;;;;;;;;5033186;28;20460;-80
2023/07/15 10:50:36;;;;;;;8.00;2.97;;;;;;;;;;5033940;28;20473;-80
2023/07/15 10:53:17;;;;;;;4.90;2.83;;;;;;;;;;5029244;28;20447;-80
2023/07/15 10:55:44;;;;;;;3.37;2.60;;;;;;;;;;5025147;28;20476;-80
2023/07/15 10:58:10;;;;;;;4.77;2.87;;;;;;;;;;5030902;28;20478;-80
2023/07/15 11:00:39;;;;;;;3.47;3.00;;;;;;;;;;5031016;28;20473;-79
2023/07/15 11:03:05;;;;;;;6.83;2.93;;;;;;;;;;5034242;28;20444;-79
2023/07/15 11:05:31;;;;;;;4.90;3.10;;;;;;;;;;5026662;28;20473;-80
2023/07/15 11:07:58;;;;;;;5.50;2.50;;;;;;;;;;5034197;28;20468;-80
2023/07/15 11:10:32;;;;;;;7.60;2.83;;;;;;;;;;5028810;28;21015;-80
2023/07/15 11:12:58;;;;;;;5.47;2.80;;;;;;;;;;5017965;28;20437;-79
2023/07/15 11:15:28;;;;;;;5.97;2.87;;;;;;;;;;5024847;28;20470;-81
2023/07/15 11:17:56;;;;;;;6.70;3.30;;;;;;;;;;5019771;28;20466;-80
2023/07/15 11:20:22;;;;;;;2.77;2.40;;;;;;;;;;5024962;28;20476;-80
2023/07/15 11:22:49;;;;;;;3.73;2.70;;;;;;;;;;5027609;28;20516;-80
2023/07/15 11:25:15;;;;;;;5.20;3.07;;;;;;;;;;5031450;28;20473;-80
2023/07/15 11:27:42;;;;;;;3.30;2.90;;;;;;;;;;5032778;28;20476;-80
2023/07/15 11:30:09;;;;;;;5.20;2.47;;;;;;;;;;5032333;28;20476;-80
2023/07/15 11:32:36;;;;;;;5.40;2.60;;;;;;;;;;5034379;28;20461;-79
2023/07/15 11:35:12;;;;;;;3.43;2.40;;;;;;;;;;5029406;28;20472;-80
2023/07/15 11:37:42;;;;;;;3.50;2.33;;;;;;;;;;5037869;28;20547;-79
2023/07/15 11:40:14;;;;;;;3.40;2.40;;;;;;;;;;5032917;28;20468;-79
2023/07/15 11:42:41;;;;;;;3.70;2.73;;;;;;;;;;5028600;28;20873;-79
2023/07/15 11:45:08;;;;;;;2.67;2.47;;;;;;;;;;5036429;28;20464;-79
2023/07/15 11:47:34;;;;;;;2.70;2.50;;;;;;;;;;5037755;28;20479;-80
2023/07/15 11:50:01;;;;;;;2.40;2.20;;;;;;;;;;5032825;28;20487;-80
2023/07/15 11:52:28;;;;;;;4.83;2.10;;;;;;;;;;5037320;28;20451;-80
2023/07/15 11:54:56;;;;;;;3.10;2.30;;;;;;;;;;5029702;28;20476;-79
2023/07/15 11:57:25;;;;;;;4.60;2.53;;;;;;;;;;5036328;28;20503;-79
2023/07/15 11:59:52;;;;;;;3.60;2.73;;;;;;;;;;5032812;28;20534;-79
2023/07/15 12:02:20;;;;;;;5.03;2.10;;;;;;;;;;5028067;28;20452;-79
2023/07/15 12:04:46;;;;;;;4.00;2.40;;;;;;;;;;5033637;28;20464;-79
2023/07/15 12:07:12;;;;;;;2.20;1.97;;;;;;;;;;5036942;28;20444;-77
2023/07/15 12:09:40;;;;;;;5.70;2.30;;;;;;;;;;5035741;28;20465;-79
2023/07/15 12:12:07;;;;;;;2.37;2.17;;;;;;;;;;5032188;28;20460;-79
2023/07/15 12:14:34;;;;;;;5.17;2.20;;;;;;;;;;5035306;28;20476;-79
2023/07/15 12:17:02;;;;;;;1.93;1.80;;;;;;;;;;5024300;28;20484;-78
2023/07/15 12:19:31;;;;;;;2.13;1.80;;;;;;;;;;5031456;28;20503;-78
2023/07/15 12:21:58;;;;;;;3.90;2.77;;;;;;;;;;5026570;28;20796;-78
2023/07/15 12:24:24;;;;;;;4.53;2.50;;;;;;;;;;5031586;28;20468;-79
2023/07/15 12:26:52;;;;;;;2.60;2.40;;;;;;;;;;5034282;28;20460;-78
2023/07/15 12:29:18;;;;;;;7.70;2.90;;;;;;;;;;5028732;28;20465;-79
2023/07/15 12:31:46;;;;;;;2.63;2.40;;;;;;;;;;5034754;28;20452;-79
2023/07/15 12:34:12;;;;;;;2.90;2.70;;;;;;;;;;5032813;28;20481;-79
2023/07/15 12:36:38;;;;;;;2.90;2.40;;;;;;;;;;5027585;28;20499;-79
2023/07/15 12:39:05;;;;;;;4.70;2.50;;;;;;;;;;5030615;28;20479;-79
2023/07/15 12:41:31;;;;;;;2.70;2.50;;;;;;;;;;5033509;28;20446;-79
2023/07/15 12:43:59;;;;;;;2.97;2.47;;;;;;;;;;5031038;28;20476;-80
2023/07/15 12:46:25;;;;;;;4.50;2.70;;;;;;;;;;5032979;28;20461;-79
2023/07/15 12:48:53;;;;;;;3.70;2.50;;;;;;;;;;5034001;28;21006;-78
2023/07/15 12:51:19;;;;;;;3.13;2.67;;;;;;;;;;5036015;28;20981;-80
2023/07/15 12:53:46;;;;;;;4.57;2.70;;;;;;;;;;5030774;28;20464;-79
2023/07/15 12:56:13;;;;;;;5.53;2.67;;;;;;;;;;5030629;28;20488;-79
2023/07/15 12:58:40;;;;;;;4.13;2.50;;;;;;;;;;5026957;28;20498;-80
2023/07/15 13:01:07;;;;;;;5.90;3.20;;;;;;;;;;5036000;28;20449;-79
2023/07/15 13:03:34;;;;;;;6.23;3.07;;;;;;;;;;5022048;28;20446;-80
2023/07/15 13:06:00;;;;;;;3.00;2.70;;;;;;;;;;5033128;28;20472;-80
2023/07/15 13:08:26;;;;;;;3.37;2.70;;;;;;;;;;5027611;28;20476;-79
2023/07/15 13:10:53;;;;;;;3.07;2.30;;;;;;;;;;5026927;28;20962;-80
2023/07/15 13:13:19;;;;;;;6.10;2.77;;;;;;;;;;5032165;28;20461;-80
2023/07/15 13:15:46;;;;;;;3.57;2.70;;;;;;;;;;5029898;28;20488;-80
2023/07/15 13:18:13;;;;;;;3.77;2.50;;;;;;;;;;5035303;28;20477;-79
2023/07/15 13:20:40;;;;;;;2.87;2.67;;;;;;;;;;5033063;28;21021;-80
2023/07/15 13:23:06;;;;;;;2.40;2.20;;;;;;;;;;5031321;28;20445;-80
2023/07/15 13:25:32;;;;;;;3.30;2.83;;;;;;;;;;5030342;28;20487;-80
2023/07/15 13:27:59;;;;;;;4.60;2.60;;;;;;;;;;5035181;28;20465;-79
2023/07/15 13:30:25;;;;;;;3.87;2.10;;;;;;;;;;5050898;28;20475;-80
2023/07/15 13:32:52;;;;;;;9.10;3.07;;;;;;;;;;5047167;28;20448;-80
2023/07/15 13:35:21;;;;;;;2.37;2.17;;;;;;;;;;5054391;28;20472;-80
2023/07/15 13:37:47;;;;;;;4.73;2.60;;;;;;;;;;5046303;28;20475;-79
2023/07/15 13:40:13;;;;;;;2.50;2.30;;;;;;;;;;5039274;28;20484;-79
2023/07/15 13:42:40;;;;;;;5.43;2.30;;;;;;;;;;5055596;28;20443;-80
2023/07/15 13:45:07;;;;;;;2.73;2.10;;;;;;;;;;5052625;28;20463;-79
2023/07/15 13:47:34;;;;;;;2.87;2.57;;;;;;;;;;5048622;28;20471;-79
2023/07/15 13:50:00;;;;;;;2.80;2.00;;;;;;;;;;5052044;28;20486;-79
2023/07/15 13:52:28;;;;;;;2.43;2.23;;;;;;;;;;5054508;28;20447;-80
2023/07/15 13:54:54;;;;;;;3.00;2.70;;;;;;;;;;5051661;28;20475;-80
2023/07/15 13:57:20;;;;;;;3.40;3.10;;;;;;;;;;5048840;28;20812;-80
2023/07/15 13:59:46;;;;;;;3.20;2.23;;;;;;;;;;5050328;28;20464;-79
2023/07/15 14:02:14;;;;;;;7.00;2.10;;;;;;;;;;5045340;28;20927;-79
2023/07/15 14:04:40;;;;;;;2.27;2.07;;;;;;;;;;5052446;28;21005;-80
2023/07/15 14:07:06;;;;;;;2.87;2.67;;;;;;;;;;5049872;28;20466;-79
2023/07/15 14:09:36;;;;;;;2.77;2.20;;;;;;;;;;5048625;28;20475;-80
2023/07/15 14:12:03;;;;;;;3.30;2.63;;;;;;;;;;5053960;28;20455;-79
2023/07/15 14:14:30;;;;;;;3.40;2.27;;;;;;;;;;5053470;28;20494;-79
2023/07/15 14:16:56;;;;;;;2.30;2.10;;;;;;;;;;5054252;28;20483;-80
2023/07/15 14:19:22;;;;;;;3.20;2.57;;;;;;;;;;5054110;28;20476;-80
2023/07/15 14:21:49;;;;;;;3.20;2.70;;;;;;;;;;5051438;28;20467;-80
2023/07/15 14:24:15;;;;;;;3.73;2.40;;;;;;;;;;5045541;28;20993;-79
2023/07/15 14:26:43;;;;;;;3.90;2.70;;;;;;;;;;5041735;28;20448;-80
2023/07/15 14:29:09;;;;;;;3.70;3.00;;;;;;;;;;5045067;28;20856;-80
2023/07/15 14:31:36;;;;;;;3.73;3.00;;;;;;;;;;5046750;28;20455;-80
2023/07/15 14:34:03;;;;;;;4.53;2.43;;;;;;;;;;5043689;28;20459;-79
2023/07/15 14:36:30;;;;;;;3.00;2.70;;;;;;;;;;5052197;28;20484;-79
2023/07/15 14:38:57;;;;;;;2.70;2.50;;;;;;;;;;5046343;28;20521;-80
2023/07/15 14:41:23;;;;;;;3.13;2.40;;;;;;;;;;5051540;28;20822;-81
2023/07/15 14:43:51;;;;;;;3.40;3.00;;;;;;;;;;5047317;28;20469;-80